createdAt,value
2022-11-28T00:02:12.824Z,9.07
2022-11-28T00:04:41.763Z,7.93
2022-11-28T00:07:12.622Z,7.40
2022-11-28T00:09:41.007Z,10.73
2022-11-28T00:12:18.173Z,13.80
2022-11-28T00:14:46.492Z,8.80
2022-11-28T00:17:14.832Z,9.07
2022-11-28T00:19:43.327Z,8.68
2022-11-28T00:22:14.171Z,10.90
2022-11-28T00:24:42.637Z,10.30
2022-11-28T00:27:13.546Z,6.78
2022-11-28T00:29:42.023Z,9.15
2022-11-28T00:32:10.581Z,12.82
2022-11-28T00:34:39.914Z,9.40
2022-11-28T00:37:11.047Z,9.63
2022-11-28T00:39:39.603Z,8.30
2022-11-28T00:42:08.059Z,13.15
2022-11-28T00:44:37.989Z,12.88
2022-11-28T00:47:06.441Z,7.82
2022-11-28T00:49:35.114Z,9.27
2022-11-28T00:52:03.419Z,8.23
2022-11-28T00:54:32.273Z,9.75
2022-11-28T00:57:00.678Z,9.18
2022-11-28T00:59:28.990Z,11.18
2022-11-28T01:02:00.418Z,11.15
2022-11-28T01:04:28.914Z,9.98
2022-11-28T01:07:01.447Z,12.03
2022-11-28T01:09:29.855Z,8.27
2022-11-28T01:11:58.206Z,11.20
2022-11-28T01:14:27.345Z,9.30
2022-11-28T01:16:55.703Z,10.45
2022-11-28T01:19:27.094Z,6.47
2022-11-28T01:21:55.323Z,7.47
2022-11-28T01:24:24.827Z,8.27
2022-11-28T01:26:53.415Z,7.93
2022-11-28T01:29:23.034Z,10.57
2022-11-28T01:31:51.871Z,9.02
2022-11-28T01:34:22.995Z,6.68
2022-11-28T01:36:53.020Z,6.97
2022-11-28T01:39:21.406Z,7.50
2022-11-28T01:41:49.761Z,9.63
2022-11-28T01:44:55.844Z,7.07
2022-11-28T01:47:28.927Z,9.82
2022-11-28T01:49:57.549Z,9.55
2022-11-28T01:52:28.231Z,8.18
2022-11-28T01:55:02.821Z,7.38
2022-11-28T01:57:31.485Z,8.50
2022-11-28T02:00:05.075Z,7.65
2022-11-28T02:02:38.861Z,7.50
2022-11-28T02:05:08.916Z,6.78
2022-11-28T02:07:39.466Z,9.90
2022-11-28T02:10:12.680Z,7.28
2022-11-28T02:13:13.559Z,10.75
2022-11-28T02:15:58.975Z,8.43
2022-11-28T02:18:50.339Z,9.00
2022-11-28T02:21:34.755Z,10.43
2022-11-28T02:24:45.709Z,10.00
2022-11-28T02:27:34.003Z,11.10
2022-11-28T02:30:17.211Z,10.77
2022-11-28T02:33:12.762Z,9.85
2022-11-28T02:35:51.206Z,13.25
2022-11-28T02:38:26.540Z,8.73
2022-11-28T02:41:02.562Z,7.38
2022-11-28T02:43:39.900Z,14.13
2022-11-28T02:46:15.064Z,8.85
2022-11-28T02:48:50.899Z,15.15
2022-11-28T02:51:27.512Z,10.95
2022-11-28T02:53:57.195Z,8.35
2022-11-28T02:56:27.299Z,12.50
2022-11-28T02:58:55.921Z,8.55
2022-11-28T03:01:34.892Z,15.27
2022-11-28T03:04:17.649Z,9.57
2022-11-28T03:06:58.480Z,12.07
2022-11-28T03:09:49.832Z,12.55
2022-11-28T03:12:28.469Z,12.05
2022-11-28T03:14:58.928Z,11.98
2022-11-28T03:17:38.161Z,13.90
2022-11-28T03:20:21.454Z,11.43
2022-11-28T03:23:01.943Z,9.77
2022-11-28T03:25:35.614Z,9.85
2022-11-28T03:28:11.454Z,10.23
2022-11-28T03:30:44.499Z,12.27
2022-11-28T03:33:16.185Z,9.95
2022-11-28T03:35:50.383Z,9.70
2022-11-28T03:38:23.384Z,9.40
2022-11-28T03:40:55.414Z,9.55
2022-11-28T03:43:30.028Z,11.65
2022-11-28T03:46:02.428Z,12.80
2022-11-28T03:48:33.878Z,11.18
2022-11-28T03:51:08.345Z,11.35
2022-11-28T03:53:42.783Z,10.52
2022-11-28T03:56:17.175Z,9.95
2022-11-28T03:58:51.286Z,12.52
2022-11-28T04:01:29.598Z,8.52
2022-11-28T04:04:07.665Z,5.57
2022-11-28T04:06:46.080Z,12.27
2022-11-28T04:09:27.429Z,11.80
2022-11-28T04:12:05.725Z,9.77
2022-11-28T04:14:46.439Z,7.87
2022-11-28T04:17:22.052Z,12.65
2022-11-28T04:19:55.035Z,10.63
2022-11-28T04:22:30.001Z,9.93
2022-11-28T04:25:05.102Z,10.20
2022-11-28T04:27:37.204Z,9.93
2022-11-28T04:30:08.731Z,10.45
2022-11-28T04:32:43.032Z,8.65
2022-11-28T04:35:15.089Z,6.93
2022-11-28T04:37:48.897Z,8.07
2022-11-28T04:40:18.915Z,10.18
2022-11-28T04:42:52.998Z,10.60
2022-11-28T04:45:28.015Z,8.23
2022-11-28T04:47:56.886Z,6.10
2022-11-28T04:50:30.178Z,7.38
2022-11-28T04:53:07.125Z,8.02
2022-11-28T04:55:40.455Z,10.55
2022-11-28T04:58:14.333Z,7.25
2022-11-28T05:00:43.956Z,7.00
2022-11-28T05:03:12.670Z,9.52
2022-11-28T05:05:46.039Z,7.55
2022-11-28T05:08:15.982Z,8.43
2022-11-28T05:10:44.528Z,9.48
2022-11-28T05:13:12.898Z,6.90
2022-11-28T05:15:41.310Z,9.38
2022-11-28T05:18:09.560Z,9.30
2022-11-28T05:20:39.746Z,5.32
2022-11-28T05:23:08.209Z,9.43
2022-11-28T05:25:39.223Z,9.38
2022-11-28T05:28:07.867Z,9.67
2022-11-28T05:30:36.090Z,6.95
2022-11-28T05:33:05.837Z,7.60
2022-11-28T05:35:34.044Z,9.10
2022-11-28T05:38:02.451Z,7.50
2022-11-28T05:40:31.589Z,11.45
2022-11-28T05:43:02.673Z,11.00
2022-11-28T05:45:34.055Z,7.10
2022-11-28T05:48:02.317Z,9.52
2022-11-28T05:50:30.534Z,9.10
2022-11-28T05:52:58.759Z,4.57
2022-11-28T05:55:28.640Z,10.00
2022-11-28T05:57:57.359Z,11.35
2022-11-28T06:00:27.432Z,6.00
2022-11-28T06:03:01.011Z,10.63
2022-11-28T06:05:42.258Z,9.25
2022-11-28T06:08:13.180Z,6.88
2022-11-28T06:10:41.637Z,11.67
2022-11-28T06:13:10.364Z,7.45
2022-11-28T06:15:44.926Z,10.95
2022-11-28T06:18:14.958Z,7.88
2022-11-28T06:20:43.681Z,8.65
2022-11-28T06:23:11.993Z,6.57
2022-11-28T06:25:40.956Z,7.85
2022-11-28T06:28:09.627Z,4.13
2022-11-28T06:30:39.356Z,7.25
2022-11-28T06:33:08.119Z,3.88
2022-11-28T06:35:36.658Z,6.40
2022-11-28T06:38:05.797Z,6.47
2022-11-28T06:40:36.160Z,10.27
2022-11-28T06:43:04.435Z,6.80
2022-11-28T06:45:34.011Z,5.90
2022-11-28T06:48:04.313Z,7.75
2022-11-28T06:50:34.124Z,3.20
2022-11-28T06:53:05.355Z,6.35
2022-11-28T06:55:33.839Z,6.68
2022-11-28T06:58:02.150Z,4.47
2022-11-28T07:00:30.511Z,5.70
2022-11-28T07:02:59.290Z,7.50
2022-11-28T07:05:31.091Z,4.57
2022-11-28T07:07:59.770Z,8.80
2022-11-28T07:10:29.774Z,4.80
2022-11-28T07:13:04.961Z,5.68
2022-11-28T07:15:33.806Z,4.65
2022-11-28T07:18:02.193Z,7.78
2022-11-28T07:20:31.878Z,5.32
2022-11-28T07:23:00.160Z,6.32
2022-11-28T07:25:28.396Z,4.70
2022-11-28T07:27:56.658Z,7.70
2022-11-28T07:30:26.516Z,4.90
2022-11-28T07:32:54.927Z,4.72
2022-11-28T07:35:23.375Z,5.85
2022-11-28T07:37:53.148Z,4.60
2022-11-28T07:40:23.765Z,6.67
2022-11-28T07:42:52.729Z,7.90
2022-11-28T07:45:20.995Z,6.47
2022-11-28T07:47:51.300Z,5.20
2022-11-28T07:50:20.380Z,12.10
2022-11-28T07:52:49.926Z,6.95
2022-11-28T07:55:21.130Z,6.43
2022-11-28T07:57:50.677Z,5.28
2022-11-28T08:00:20.446Z,6.18
2022-11-28T08:02:48.676Z,5.22
2022-11-28T08:05:17.028Z,3.58
2022-11-28T08:07:46.674Z,3.45
2022-11-28T08:10:15.201Z,7.28
2022-11-28T08:12:44.888Z,6.93
2022-11-28T08:15:13.348Z,6.30
2022-11-28T08:17:42.499Z,6.40
2022-11-28T08:20:13.309Z,6.90
2022-11-28T08:22:41.694Z,4.67
2022-11-28T08:25:11.234Z,3.83
2022-11-28T08:27:39.728Z,8.15
2022-11-28T08:30:11.420Z,3.70
2022-11-28T08:32:40.984Z,5.90
2022-11-28T08:35:09.911Z,6.05
2022-11-28T08:37:38.189Z,6.10
2022-11-28T08:40:07.976Z,3.33
2022-11-28T08:42:36.376Z,4.13
2022-11-28T08:45:05.876Z,4.10
2022-11-28T08:47:35.950Z,5.25
2022-11-28T08:50:05.391Z,11.07
2022-11-28T08:52:35.254Z,6.78
2022-11-28T08:55:03.663Z,4.32
2022-11-28T08:57:31.956Z,7.55
2022-11-28T09:00:00.209Z,6.30
2022-11-28T09:02:28.780Z,4.22
2022-11-28T09:04:58.707Z,5.70
2022-11-28T09:07:27.050Z,5.00
2022-11-28T09:09:55.664Z,4.73
2022-11-28T09:12:24.026Z,5.75
2022-11-28T09:14:55.227Z,6.05
2022-11-28T09:17:23.635Z,4.72
2022-11-28T09:19:51.931Z,5.18
2022-11-28T09:22:21.635Z,4.85
2022-11-28T09:24:50.209Z,4.57
2022-11-28T09:27:21.154Z,5.63
2022-11-28T09:29:49.690Z,5.78
2022-11-28T09:32:19.335Z,5.53
2022-11-28T09:34:51.289Z,5.60
2022-11-28T09:37:21.080Z,6.05
2022-11-28T09:40:12.123Z,4.82
2022-11-28T09:42:44.113Z,6.63
2022-11-28T09:45:18.195Z,5.53
2022-11-28T09:47:50.646Z,6.90
2022-11-28T09:50:23.763Z,7.33
2022-11-28T09:53:01.633Z,3.13
2022-11-28T09:55:36.736Z,6.22
2022-11-28T09:58:13.110Z,4.85
2022-11-28T10:00:51.379Z,6.05
2022-11-28T10:03:39.166Z,3.80
2022-11-28T10:06:15.439Z,2.33
2022-11-28T10:08:58.084Z,4.05
2022-11-28T10:11:37.602Z,7.78
2022-11-28T10:14:20.056Z,5.40
2022-11-28T10:16:59.958Z,5.32
2022-11-28T10:19:53.814Z,7.97
2022-11-28T10:22:30.798Z,4.78
2022-11-28T10:25:06.469Z,3.37
2022-11-28T10:27:37.946Z,6.53
2022-11-28T10:30:11.870Z,5.82
2022-11-28T10:32:45.588Z,6.30
2022-11-28T10:35:28.114Z,5.70
2022-11-28T10:37:58.885Z,3.95
2022-11-28T10:40:35.691Z,3.17
2022-11-28T10:43:07.570Z,3.53
2022-11-28T10:45:47.569Z,4.82
2022-11-28T10:48:40.701Z,4.03
2022-11-28T10:51:26.722Z,4.38
2022-11-28T10:54:07.053Z,3.65
2022-11-28T10:56:48.524Z,4.55
2022-11-28T10:59:24.044Z,3.83
2022-11-28T11:01:53.461Z,6.40
2022-11-28T11:04:24.216Z,2.67
2022-11-28T11:07:15.073Z,4.03
2022-11-28T11:09:47.695Z,3.90
2022-11-28T11:12:25.175Z,3.85
2022-11-28T11:14:53.625Z,1.45
2022-11-28T11:17:35.492Z,4.68
2022-11-28T11:20:21.113Z,1.67
2022-11-28T11:22:56.852Z,3.25
2022-11-28T11:25:29.580Z,4.47
2022-11-28T11:28:01.940Z,1.73
2022-11-28T11:30:33.630Z,1.95
2022-11-28T11:33:06.007Z,2.93
2022-11-28T11:35:37.794Z,2.67
2022-11-28T11:38:37.308Z,2.10
2022-11-28T11:41:29.757Z,3.40
2022-11-28T11:44:30.776Z,2.70
2022-11-28T11:47:02.975Z,0.90
2022-11-28T11:49:36.877Z,1.20
2022-11-28T11:52:08.505Z,1.17
2022-11-28T11:54:37.343Z,0.30
2022-11-28T11:57:32.116Z,1.10
2022-11-28T12:00:07.028Z,1.40
2022-11-28T12:02:39.823Z,0.98
2022-11-28T12:05:14.438Z,1.63
2022-11-28T12:07:51.923Z,1.30
2022-11-28T12:10:24.989Z,1.40
2022-11-28T12:12:54.564Z,1.15
2022-11-28T12:15:31.286Z,2.93
2022-11-28T12:18:12.081Z,2.08
2022-11-28T12:20:55.836Z,1.88
2022-11-28T12:23:43.188Z,1.65
2022-11-28T12:26:18.731Z,1.80
2022-11-28T12:29:02.025Z,1.38
2022-11-28T12:31:41.137Z,1.85
2022-11-28T12:34:21.750Z,1.50
2022-11-28T12:36:58.066Z,1.77
2022-11-28T12:39:37.553Z,1.88
2022-11-28T12:42:44.782Z,7.63
2022-11-28T12:45:26.605Z,4.00
2022-11-28T12:48:05.425Z,3.58
2022-11-28T12:50:36.900Z,2.92
2022-11-28T12:53:24.080Z,2.95
2022-11-28T12:56:01.420Z,1.73
2022-11-28T12:58:34.307Z,2.28
2022-11-28T13:01:14.022Z,2.03
2022-11-28T13:04:00.509Z,2.08
2022-11-28T13:06:43.639Z,1.70
2022-11-28T13:09:29.250Z,3.03
2022-11-28T13:12:16.247Z,2.70
2022-11-28T13:15:01.033Z,1.92
2022-11-28T13:17:40.691Z,2.78
2022-11-28T13:20:20.708Z,1.20
2022-11-28T13:23:00.426Z,1.27
2022-11-28T13:25:37.192Z,1.83
2022-11-28T13:28:15.871Z,1.80
2022-11-28T13:30:51.315Z,1.42
2022-11-28T13:33:45.118Z,2.80
2022-11-28T13:39:21.444Z,3.83
2022-11-28T13:44:54.772Z,2.80
2022-11-28T13:47:35.807Z,2.00
2022-11-28T13:50:37.723Z,3.65
2022-11-28T13:53:24.022Z,5.18
2022-11-28T13:55:54.095Z,3.28
2022-11-28T13:58:28.429Z,2.75
2022-11-28T14:01:07.973Z,1.85
2022-11-28T14:03:44.447Z,2.57
2022-11-28T14:06:16.043Z,3.40
2022-11-28T14:08:49.992Z,3.97
2022-11-28T14:11:47.536Z,1.95
2022-11-28T14:14:43.529Z,1.92
2022-11-28T14:17:34.962Z,1.77
2022-11-28T14:20:16.379Z,3.00
2022-11-28T14:22:58.014Z,2.67
2022-11-28T14:25:31.640Z,2.40
2022-11-28T14:28:03.395Z,3.58
2022-11-28T14:30:35.345Z,2.97
2022-11-28T14:33:06.988Z,3.45
2022-11-28T14:36:07.563Z,3.35
2022-11-28T14:38:47.286Z,4.13
2022-11-28T14:41:19.663Z,5.72
2022-11-28T14:43:52.923Z,5.70
2022-11-28T14:46:30.358Z,6.45
2022-11-28T14:49:24.677Z,4.35
2022-11-28T14:52:38.539Z,5.07
2022-11-28T14:55:18.910Z,3.70
2022-11-28T14:58:05.353Z,5.10
2022-11-28T15:00:41.975Z,6.03
2022-11-28T15:03:28.263Z,6.80
2022-11-28T15:06:02.389Z,4.75
2022-11-28T15:08:47.784Z,4.25
2022-11-28T15:11:35.484Z,6.40
2022-11-28T15:14:11.463Z,3.28
2022-11-28T15:16:49.855Z,6.85
2022-11-28T15:19:24.971Z,5.77
2022-11-28T15:21:56.145Z,4.07
2022-11-28T15:24:27.681Z,6.17
2022-11-28T15:26:57.998Z,4.72
2022-11-28T15:29:31.609Z,4.75
2022-11-28T15:32:01.907Z,5.57
2022-11-28T15:34:33.795Z,6.63
2022-11-28T15:37:06.003Z,4.93
2022-11-28T15:39:39.477Z,3.80
2022-11-28T15:42:14.015Z,5.43
2022-11-28T15:44:44.370Z,5.35
2022-11-28T15:47:19.739Z,4.35
2022-11-28T15:50:00.138Z,7.05
2022-11-28T15:52:28.524Z,10.95
2022-11-28T15:54:58.588Z,4.57
2022-11-28T15:57:28.945Z,3.93
2022-11-28T16:00:00.341Z,6.60
2022-11-28T16:02:32.753Z,4.72
2022-11-28T16:05:06.267Z,4.47
2022-11-28T16:07:40.474Z,5.78
2022-11-28T16:10:22.422Z,6.03
2022-11-28T16:12:54.856Z,7.95
2022-11-28T16:15:25.913Z,5.63
2022-11-28T16:17:56.303Z,4.63
2022-11-28T16:20:28.212Z,6.43
2022-11-28T16:23:04.149Z,7.10
2022-11-28T16:25:32.703Z,10.70
2022-11-28T16:28:03.485Z,7.63
2022-11-28T16:30:38.328Z,7.38
2022-11-28T16:33:37.768Z,9.65
2022-11-28T16:36:19.455Z,6.32
2022-11-28T16:38:49.551Z,9.80
2022-11-28T16:41:19.101Z,11.68
2022-11-28T16:43:52.777Z,10.32
2022-11-28T16:46:24.738Z,10.52
2022-11-28T16:48:57.229Z,12.00
2022-11-28T16:51:37.939Z,8.90
2022-11-28T16:54:31.626Z,7.45
2022-11-28T16:57:10.495Z,9.80
2022-11-28T16:59:39.189Z,12.60
2022-11-28T17:02:16.659Z,15.13
2022-11-28T17:04:46.778Z,15.43
2022-11-28T17:07:18.787Z,16.08
2022-11-28T17:09:48.542Z,17.30
2022-11-28T17:12:23.441Z,13.68
2022-11-28T17:14:51.916Z,12.27
2022-11-28T17:17:24.346Z,9.20
2022-11-28T17:19:53.042Z,12.30
2022-11-28T17:22:24.683Z,11.93
2022-11-28T17:24:59.223Z,16.35
2022-11-28T17:27:28.104Z,13.18
2022-11-28T17:29:57.183Z,18.48
2022-11-28T17:32:27.126Z,23.33
2022-11-28T17:34:55.520Z,26.43
2022-11-28T17:37:23.998Z,21.17
2022-11-28T17:40:09.985Z,24.23
2022-11-28T17:42:39.861Z,22.17
2022-11-28T17:45:16.628Z,14.85
2022-11-28T17:47:46.288Z,21.13
2022-11-28T17:50:14.823Z,26.63
2022-11-28T17:52:43.346Z,18.02
2022-11-28T17:55:13.394Z,29.00
2022-11-28T17:57:44.439Z,15.98
2022-11-28T18:00:15.748Z,16.85
2022-11-28T18:02:48.150Z,16.00
2022-11-28T18:05:16.882Z,13.75
2022-11-28T18:07:45.324Z,16.50
2022-11-28T18:10:13.898Z,23.38
2022-11-28T18:12:42.900Z,18.98
2022-11-28T18:15:11.902Z,19.20
2022-11-28T18:17:40.288Z,19.33
2022-11-28T18:20:20.100Z,21.98
2022-11-28T18:22:48.777Z,37.92
2022-11-28T18:25:17.336Z,50.28
2022-11-28T18:27:46.753Z,50.35
2022-11-28T18:30:16.929Z,23.88
2022-11-28T18:32:45.612Z,18.57
2022-11-28T18:35:15.779Z,16.20
2022-11-28T18:40:26.347Z,17.85
2022-11-28T18:42:54.572Z,15.77
2022-11-28T18:45:23.709Z,22.83
2022-11-28T18:47:55.939Z,18.90
2022-11-28T18:50:29.790Z,18.05
2022-11-28T18:52:58.660Z,14.35
2022-11-28T18:55:28.042Z,13.68
2022-11-28T18:57:56.353Z,11.63
2022-11-28T19:00:25.130Z,11.82
2022-11-28T19:02:56.881Z,11.57
2022-11-28T19:05:26.827Z,10.80
2022-11-28T19:07:58.006Z,10.43
2022-11-28T19:10:26.867Z,15.95
2022-11-28T19:12:55.108Z,13.07
2022-11-28T19:15:23.379Z,14.95
2022-11-28T19:17:52.845Z,13.25
2022-11-28T19:20:22.542Z,15.75
2022-11-28T19:22:50.931Z,11.50
2022-11-28T19:25:21.971Z,10.23
2022-11-28T19:27:51.514Z,13.40
2022-11-28T19:30:20.280Z,13.60
2022-11-28T19:32:48.774Z,15.45
2022-11-28T19:35:17.224Z,11.53
2022-11-28T19:37:45.488Z,12.30
2022-11-28T19:40:14.668Z,14.83
2022-11-28T19:42:44.343Z,16.10
2022-11-28T19:45:15.811Z,20.52
2022-11-28T19:47:47.043Z,16.90
2022-11-28T19:50:18.503Z,15.95
2022-11-28T19:52:46.805Z,16.45
2022-11-28T19:55:15.249Z,14.43
2022-11-28T19:57:45.045Z,14.18
2022-11-28T20:00:14.658Z,12.68
2022-11-28T20:02:43.268Z,14.63
2022-11-28T20:05:12.815Z,10.95
2022-11-28T20:07:41.389Z,13.05
2022-11-28T20:10:15.635Z,15.13
2022-11-28T20:12:45.797Z,11.95
2022-11-28T20:15:18.187Z,13.77
2022-11-28T20:17:46.844Z,12.40
2022-11-28T20:20:16.083Z,16.35
2022-11-28T20:22:45.614Z,13.15
2022-11-28T20:25:20.514Z,10.70
2022-11-28T20:27:50.927Z,9.80
2022-11-28T20:30:19.686Z,9.50
2022-11-28T20:32:48.327Z,11.45
2022-11-28T20:35:17.956Z,9.18
2022-11-28T20:37:47.605Z,9.70
2022-11-28T20:40:16.534Z,9.82
2022-11-28T20:42:45.111Z,9.50
2022-11-28T20:45:14.818Z,8.95
2022-11-28T20:47:48.218Z,8.13
2022-11-28T20:50:18.167Z,10.75
2022-11-28T20:52:48.526Z,12.73
2022-11-28T20:55:16.830Z,14.38
2022-11-28T20:57:45.366Z,13.93
2022-11-28T21:00:24.996Z,11.45
2022-11-28T21:02:54.965Z,12.25
2022-11-28T21:05:23.817Z,13.25
2022-11-28T21:07:52.131Z,12.68
2022-11-28T21:10:21.578Z,11.38
2022-11-28T21:12:49.947Z,13.68
2022-11-28T21:15:20.050Z,11.93
2022-11-28T21:17:51.139Z,16.53
2022-11-28T21:20:19.702Z,15.25
2022-11-28T21:22:48.569Z,15.75
2022-11-28T21:25:17.247Z,13.57
2022-11-28T21:27:46.221Z,14.05
2022-11-28T21:30:14.904Z,13.48
2022-11-28T21:32:45.210Z,11.75
2022-11-28T21:35:13.513Z,10.20
2022-11-28T21:37:42.320Z,11.63
2022-11-28T21:40:13.479Z,12.18
2022-11-28T21:42:43.444Z,11.05
2022-11-28T21:45:12.560Z,10.57
2022-11-28T21:47:41.415Z,10.82
2022-11-28T21:50:12.715Z,10.52
2022-11-28T21:52:41.324Z,11.35
2022-11-28T21:55:11.094Z,11.13
2022-11-28T21:57:43.144Z,14.25
2022-11-28T22:00:31.350Z,14.07
2022-11-28T22:03:04.965Z,12.93
2022-11-28T22:05:37.269Z,10.65
2022-11-28T22:08:06.420Z,13.00
2022-11-28T22:10:35.699Z,14.98
2022-11-28T22:13:03.999Z,11.65
2022-11-28T22:15:32.336Z,9.60
2022-11-28T22:18:00.566Z,13.15
2022-11-28T22:20:29.174Z,14.65
2022-11-28T22:22:59.063Z,15.90
2022-11-28T22:25:27.490Z,13.98
2022-11-28T22:27:55.839Z,12.65
2022-11-28T22:30:26.380Z,12.30
2022-11-28T22:32:54.945Z,13.45
2022-11-28T22:35:23.390Z,12.20
2022-11-28T22:37:55.186Z,9.75
2022-11-28T22:40:24.874Z,9.57
2022-11-28T22:42:55.675Z,10.95
2022-11-28T22:45:24.334Z,14.15
2022-11-28T22:47:53.929Z,11.70
2022-11-28T22:50:24.943Z,12.85
2022-11-28T22:52:53.218Z,10.32
2022-11-28T22:55:21.896Z,10.73
2022-11-28T22:57:53.016Z,10.80
2022-11-28T23:00:23.294Z,12.85
2022-11-28T23:02:54.417Z,9.53
2022-11-28T23:05:24.138Z,11.23
2022-11-28T23:07:53.073Z,13.75
2022-11-28T23:10:25.974Z,48.15
2022-11-28T23:12:55.650Z,44.15
2022-11-28T23:15:24.073Z,52.22
2022-11-28T23:17:53.326Z,39.55
2022-11-28T23:20:22.200Z,31.85
2022-11-28T23:22:50.720Z,21.33
2022-11-28T23:25:19.295Z,27.23
2022-11-28T23:27:47.769Z,17.33
2022-11-28T23:30:17.751Z,16.50
2022-11-28T23:32:46.234Z,10.40
2022-11-28T23:35:17.832Z,11.30
2022-11-28T23:37:46.288Z,10.88
2022-11-28T23:40:14.926Z,11.73
2022-11-28T23:42:43.542Z,10.35
2022-11-28T23:45:13.952Z,12.52
2022-11-28T23:47:43.818Z,9.23
2022-11-28T23:50:12.574Z,12.40
2022-11-28T23:52:43.864Z,12.30
2022-11-28T23:55:12.200Z,12.70
2022-11-28T23:57:40.694Z,9.23
